createdAt,value
2018-03-20T00:02:25.180Z,0.13
2018-03-20T00:04:52.679Z,0.13
2018-03-20T00:07:20.196Z,0.12
2018-03-20T00:09:47.812Z,0.08
2018-03-20T00:12:15.330Z,0.11
2018-03-20T00:14:42.834Z,0.09
2018-03-20T00:17:10.375Z,0.11
2018-03-20T00:19:37.871Z,0.13
2018-03-20T00:22:05.383Z,0.17
2018-03-20T00:24:32.947Z,0.14
2018-03-20T00:27:00.455Z,0.18
2018-03-20T00:29:27.980Z,0.16
2018-03-20T00:31:55.492Z,0.16
2018-03-20T00:34:22.974Z,0.15
2018-03-20T00:36:50.480Z,0.15
2018-03-20T00:39:17.982Z,0.20
2018-03-20T00:41:45.574Z,0.24
2018-03-20T00:44:13.078Z,0.25
2018-03-20T00:46:40.595Z,0.28
2018-03-20T00:49:08.091Z,0.33
2018-03-20T00:51:35.604Z,0.33
2018-03-20T00:54:03.106Z,0.33
2018-03-20T00:56:30.599Z,0.30
2018-03-20T00:58:58.120Z,0.33
2018-03-20T01:01:25.616Z,0.39
2018-03-20T01:03:53.127Z,0.39
2018-03-20T01:06:20.651Z,0.41
2018-03-20T01:08:48.213Z,0.39
2018-03-20T01:11:15.852Z,0.40
2018-03-20T01:13:43.431Z,0.43
2018-03-20T01:16:11.047Z,0.44
2018-03-20T01:18:38.760Z,0.44
2018-03-20T01:21:06.243Z,0.40
2018-03-20T01:23:33.767Z,0.40
2018-03-20T01:26:01.259Z,0.44
2018-03-20T01:28:28.780Z,0.36
2018-03-20T01:30:56.284Z,0.29
2018-03-20T01:33:23.795Z,0.22
2018-03-20T01:35:51.300Z,0.22
2018-03-20T01:38:18.816Z,0.16
2018-03-20T01:40:46.379Z,0.15
2018-03-20T01:43:13.939Z,0.13
2018-03-20T01:45:41.427Z,0.16
2018-03-20T01:48:08.964Z,0.13
2018-03-20T01:50:36.468Z,0.09
2018-03-20T01:53:16.015Z,0.09
2018-03-20T01:55:43.508Z,0.14
2018-03-20T01:58:11.071Z,0.12
2018-03-20T02:00:38.564Z,0.16
2018-03-20T02:03:06.083Z,0.14
2018-03-20T02:05:33.576Z,0.14
2018-03-20T02:08:01.099Z,0.10
2018-03-20T02:10:28.596Z,0.10
2018-03-20T02:12:56.111Z,0.10
2018-03-20T02:15:23.603Z,0.08
2018-03-20T02:17:51.119Z,0.08
2018-03-20T02:20:18.706Z,0.11
2018-03-20T02:22:46.231Z,0.15
2018-03-20T02:25:13.723Z,0.09
2018-03-20T02:27:41.288Z,0.08
2018-03-20T02:30:08.796Z,0.11
2018-03-20T02:32:36.303Z,0.12
2018-03-20T02:35:03.868Z,0.02
2018-03-20T02:37:31.417Z,0.03
2018-03-20T02:39:58.988Z,-0.03
2018-03-20T02:42:26.479Z,0.00
2018-03-20T02:44:54.003Z,-0.05
2018-03-20T02:47:21.505Z,-0.03
2018-03-20T02:49:49.130Z,-0.01
2018-03-20T02:52:17.606Z,-0.05
2018-03-20T02:54:45.132Z,-0.06
2018-03-20T02:57:12.641Z,-0.01
2018-03-20T02:59:40.173Z,0.00
2018-03-20T03:02:08.632Z,0.04
2018-03-20T03:04:36.157Z,0.02
2018-03-20T03:07:03.656Z,0.03
2018-03-20T03:09:31.240Z,0.02
2018-03-20T03:11:58.736Z,0.01
2018-03-20T03:14:26.351Z,0.02
2018-03-20T03:16:53.840Z,0.01
2018-03-20T03:19:21.392Z,0.04
2018-03-20T03:21:48.891Z,0.03
2018-03-20T03:24:16.490Z,0.00
2018-03-20T03:26:43.986Z,0.00
2018-03-20T03:29:11.495Z,0.01
2018-03-20T03:31:39.025Z,0.05
2018-03-20T03:34:06.541Z,0.01
2018-03-20T03:36:34.088Z,0.04
2018-03-20T03:39:01.606Z,0.05
2018-03-20T03:41:29.204Z,0.02
2018-03-20T03:43:56.713Z,0.01
2018-03-20T03:46:24.238Z,0.06
2018-03-20T03:48:51.752Z,0.05
2018-03-20T03:51:20.263Z,0.08
2018-03-20T03:53:47.786Z,0.05
2018-03-20T03:56:15.280Z,0.06
2018-03-20T03:58:42.812Z,0.05
2018-03-20T04:01:10.319Z,0.07
2018-03-20T04:03:37.851Z,0.06
2018-03-20T04:06:05.426Z,0.09
2018-03-20T04:08:32.968Z,0.08
2018-03-20T04:11:00.467Z,0.07
2018-03-20T04:13:27.959Z,0.05
2018-03-20T04:15:55.479Z,0.00
2018-03-20T04:18:22.982Z,-0.02
2018-03-20T04:20:50.599Z,0.00
2018-03-20T04:23:18.102Z,0.04
2018-03-20T04:25:45.614Z,0.05
2018-03-20T04:28:13.214Z,0.02
2018-03-20T04:30:40.732Z,0.01
2018-03-20T04:33:08.240Z,0.00
2018-03-20T04:35:35.796Z,0.01
2018-03-20T04:38:03.387Z,0.01
2018-03-20T04:40:30.899Z,-0.03
2018-03-20T04:42:58.429Z,-0.01
2018-03-20T04:45:25.961Z,-0.01
2018-03-20T04:47:53.523Z,-0.01
2018-03-20T04:50:21.083Z,0.00
2018-03-20T04:52:48.584Z,0.06
2018-03-20T04:55:16.099Z,0.05
2018-03-20T04:57:43.600Z,0.07
2018-03-20T05:00:11.115Z,0.13
2018-03-20T05:02:38.603Z,0.15
2018-03-20T05:05:06.134Z,0.15
2018-03-20T05:07:33.697Z,0.15
2018-03-20T05:10:01.252Z,0.14
2018-03-20T05:12:28.755Z,0.13
2018-03-20T05:14:56.381Z,0.14
2018-03-20T05:17:23.883Z,0.16
2018-03-20T05:19:52.800Z,0.16
2018-03-20T05:22:23.235Z,0.18
2018-03-20T05:24:50.812Z,0.18
2018-03-20T05:27:18.308Z,0.16
2018-03-20T05:29:45.818Z,0.12
2018-03-20T05:32:13.348Z,0.17
2018-03-20T05:34:40.860Z,0.15
2018-03-20T05:37:08.357Z,0.19
2018-03-20T05:39:35.896Z,0.16
2018-03-20T05:42:03.397Z,0.18
2018-03-20T05:44:30.895Z,0.19
2018-03-20T05:47:01.973Z,0.18
2018-03-20T05:49:34.432Z,0.10
2018-03-20T05:52:06.462Z,0.09
2018-03-20T05:54:33.957Z,0.05
2018-03-20T05:57:01.580Z,0.06
2018-03-20T05:59:29.089Z,0.06
2018-03-20T06:01:56.608Z,0.08
2018-03-20T06:04:24.095Z,0.08
2018-03-20T06:06:51.607Z,0.08
2018-03-20T06:09:19.179Z,0.14
2018-03-20T06:11:46.691Z,0.09
2018-03-20T06:14:14.180Z,0.04
2018-03-20T06:16:41.704Z,0.10
2018-03-20T06:19:09.196Z,0.17
2018-03-20T06:21:36.716Z,0.19
2018-03-20T06:24:04.199Z,0.27
2018-03-20T06:26:31.720Z,0.26
2018-03-20T06:28:59.239Z,0.40
2018-03-20T06:31:26.760Z,0.41
2018-03-20T06:33:54.365Z,0.37
2018-03-20T06:36:22.032Z,0.35
2018-03-20T06:38:49.733Z,0.36
2018-03-20T06:41:17.355Z,0.50
2018-03-20T06:43:44.852Z,0.43
2018-03-20T06:46:12.367Z,0.56
2018-03-20T06:48:39.927Z,0.49
2018-03-20T06:51:07.495Z,0.43
2018-03-20T06:53:35.044Z,0.34
2018-03-20T06:56:02.624Z,0.29
2018-03-20T06:58:30.191Z,0.21
2018-03-20T07:00:57.729Z,0.30
2018-03-20T07:03:25.245Z,0.19
2018-03-20T07:05:52.736Z,0.37
2018-03-20T07:08:20.268Z,0.50
2018-03-20T07:10:47.764Z,0.67
2018-03-20T07:13:15.292Z,0.59
2018-03-20T07:15:42.782Z,0.72
2018-03-20T07:18:10.292Z,0.79
2018-03-20T07:20:37.776Z,0.87
2018-03-20T07:23:05.301Z,1.02
2018-03-20T07:25:32.789Z,0.91
2018-03-20T07:28:00.388Z,0.96
2018-03-20T07:30:28.000Z,1.04
2018-03-20T07:32:55.517Z,0.67
2018-03-20T07:35:23.020Z,0.68
2018-03-20T07:37:50.587Z,0.52
2018-03-20T07:40:18.076Z,0.42
2018-03-20T07:42:45.639Z,0.46
2018-03-20T07:45:13.171Z,0.60
2018-03-20T07:47:40.695Z,0.70
2018-03-20T07:50:08.199Z,0.63
2018-03-20T07:52:35.728Z,0.51
2018-03-20T07:55:03.237Z,0.39
2018-03-20T07:57:30.756Z,0.54
2018-03-20T07:59:58.424Z,0.47
2018-03-20T08:02:26.024Z,0.45
2018-03-20T08:04:53.519Z,0.43
2018-03-20T08:07:21.175Z,0.40
2018-03-20T08:09:48.683Z,0.35
2018-03-20T08:12:16.189Z,0.49
2018-03-20T08:14:43.710Z,0.66
2018-03-20T08:17:11.204Z,0.58
2018-03-20T08:19:38.720Z,0.51
2018-03-20T08:22:06.238Z,0.56
2018-03-20T08:24:33.770Z,0.76
2018-03-20T08:27:01.301Z,0.68
2018-03-20T08:29:28.812Z,0.48
2018-03-20T08:31:56.353Z,0.74
2018-03-20T08:34:23.876Z,1.11
2018-03-20T08:36:51.435Z,0.83
2018-03-20T08:39:18.959Z,0.79
2018-03-20T08:41:46.455Z,0.86
2018-03-20T08:44:13.970Z,1.08
2018-03-20T08:46:41.488Z,1.14
2018-03-20T08:49:09.028Z,1.21
2018-03-20T08:51:36.516Z,1.36
2018-03-20T08:54:04.670Z,1.21
2018-03-20T08:56:32.656Z,1.44
2018-03-20T08:59:00.235Z,1.37
2018-03-20T09:01:27.713Z,1.49
2018-03-20T09:03:55.253Z,1.55
2018-03-20T09:06:22.806Z,1.68
2018-03-20T09:08:51.251Z,1.98
2018-03-20T09:11:18.924Z,1.56
2018-03-20T09:13:46.439Z,1.07
2018-03-20T09:16:13.944Z,1.20
2018-03-20T09:18:41.452Z,1.12
2018-03-20T09:21:08.979Z,1.04
2018-03-20T09:23:36.508Z,1.14
2018-03-20T09:26:04.008Z,1.38
2018-03-20T09:28:31.523Z,1.40
2018-03-20T09:30:59.092Z,1.13
2018-03-20T09:33:26.615Z,1.18
2018-03-20T09:35:54.239Z,1.15
2018-03-20T09:38:21.747Z,1.34
2018-03-20T09:40:49.278Z,1.56
2018-03-20T09:43:16.795Z,1.50
2018-03-20T09:45:44.336Z,1.39
2018-03-20T09:48:11.828Z,1.73
2018-03-20T09:50:39.384Z,2.01
2018-03-20T09:53:06.875Z,2.16
2018-03-20T09:55:34.483Z,2.36
2018-03-20T09:58:02.048Z,2.60
2018-03-20T10:00:29.568Z,2.68
2018-03-20T10:02:57.061Z,2.49
2018-03-20T10:05:24.597Z,3.07
2018-03-20T10:07:52.185Z,2.89
2018-03-20T10:10:19.704Z,3.03
2018-03-20T10:12:47.215Z,2.72
2018-03-20T10:15:14.753Z,2.74
2018-03-20T10:17:42.425Z,2.54
2018-03-20T10:20:09.975Z,2.98
2018-03-20T10:22:37.462Z,3.13
2018-03-20T10:25:05.046Z,2.98
2018-03-20T10:27:32.600Z,3.10
2018-03-20T10:30:00.326Z,3.27
2018-03-20T10:32:27.821Z,3.33
2018-03-20T10:34:55.343Z,3.43
2018-03-20T10:37:22.843Z,3.60
2018-03-20T10:39:51.363Z,3.64
2018-03-20T10:42:18.856Z,3.47
2018-03-20T10:44:46.391Z,3.22
2018-03-20T10:47:13.880Z,3.01
2018-03-20T10:49:41.395Z,2.76
2018-03-20T10:52:08.892Z,3.37
2018-03-20T10:54:36.412Z,3.25
2018-03-20T10:57:03.915Z,3.18
2018-03-20T10:59:31.427Z,3.27
2018-03-20T11:02:04.603Z,3.38
2018-03-20T11:04:32.191Z,3.57
2018-03-20T11:06:59.683Z,3.73
2018-03-20T11:09:27.310Z,3.77
2018-03-20T11:11:54.800Z,3.91
2018-03-20T11:14:22.336Z,4.01
2018-03-20T11:16:49.840Z,4.20
2018-03-20T11:19:17.409Z,4.75
2018-03-20T11:21:44.901Z,5.13
2018-03-20T11:24:12.412Z,5.38
2018-03-20T11:26:39.924Z,5.59
2018-03-20T11:29:07.431Z,6.04
2018-03-20T11:31:35.005Z,6.18
2018-03-20T11:34:02.528Z,6.98
2018-03-20T11:36:30.152Z,7.07
2018-03-20T11:38:57.652Z,7.95
2018-03-20T11:41:25.185Z,8.55
2018-03-20T11:43:52.740Z,10.15
2018-03-20T11:46:20.243Z,11.38
2018-03-20T11:48:47.768Z,14.06
2018-03-20T11:51:15.296Z,15.30
2018-03-20T11:53:42.796Z,14.87
2018-03-20T11:56:10.319Z,15.10
2018-03-20T11:58:37.827Z,15.38
2018-03-20T12:01:05.372Z,15.90
2018-03-20T12:03:32.880Z,17.55
2018-03-20T12:06:00.435Z,17.74
2018-03-20T12:08:39.844Z,17.46
2018-03-20T12:11:07.368Z,15.05
2018-03-20T12:13:34.927Z,14.15
2018-03-20T12:16:02.488Z,15.62
2018-03-20T12:18:29.988Z,17.73
2018-03-20T12:20:57.509Z,18.08
2018-03-20T12:23:25.059Z,19.68
2018-03-20T12:25:52.622Z,18.71
2018-03-20T12:28:20.135Z,18.60
2018-03-20T12:30:47.735Z,17.09
2018-03-20T12:33:15.268Z,14.58
2018-03-20T12:35:42.809Z,12.40
2018-03-20T12:38:10.320Z,10.59
2018-03-20T12:40:37.849Z,10.26
2018-03-20T12:43:05.432Z,13.31
2018-03-20T12:45:32.986Z,16.00
2018-03-20T12:48:00.512Z,17.77
2018-03-20T12:50:28.043Z,20.73
2018-03-20T12:52:55.544Z,19.86
2018-03-20T12:55:23.100Z,16.54
2018-03-20T12:57:50.668Z,14.64
2018-03-20T13:00:18.192Z,13.04
2018-03-20T13:02:45.724Z,11.85
2018-03-20T13:05:13.252Z,11.35
2018-03-20T13:07:40.871Z,10.47
2018-03-20T13:10:08.378Z,10.20
2018-03-20T13:12:35.900Z,10.27
2018-03-20T13:15:03.426Z,10.44
2018-03-20T13:17:31.889Z,10.00
2018-03-20T13:19:59.387Z,9.01
2018-03-20T13:22:27.013Z,8.52
2018-03-20T13:24:54.548Z,8.16
2018-03-20T13:27:22.129Z,8.63
2018-03-20T13:29:49.621Z,9.75
2018-03-20T13:32:17.156Z,10.67
2018-03-20T13:34:44.665Z,10.52
2018-03-20T13:37:12.192Z,10.02
2018-03-20T13:39:39.705Z,9.21
2018-03-20T13:42:07.296Z,8.76
2018-03-20T13:44:34.799Z,7.98
2018-03-20T13:47:02.316Z,7.66
2018-03-20T13:49:29.829Z,6.57
2018-03-20T13:51:57.353Z,6.13
2018-03-20T13:54:24.848Z,5.89
2018-03-20T13:56:52.432Z,6.14
2018-03-20T13:59:19.944Z,5.94
2018-03-20T14:01:47.465Z,5.85
2018-03-20T14:04:14.959Z,6.01
2018-03-20T14:06:42.477Z,5.74
2018-03-20T14:09:10.146Z,5.83
2018-03-20T14:11:37.696Z,6.26
2018-03-20T14:14:05.200Z,6.61
2018-03-20T14:16:32.708Z,6.18
2018-03-20T14:19:00.211Z,6.10
2018-03-20T14:21:27.719Z,6.44
2018-03-20T14:23:56.176Z,6.08
2018-03-20T14:26:23.703Z,5.97
2018-03-20T14:28:51.248Z,5.84
2018-03-20T14:31:18.803Z,5.76
2018-03-20T14:33:46.317Z,6.17
2018-03-20T14:36:13.903Z,6.23
2018-03-20T14:38:41.424Z,6.32
2018-03-20T14:41:08.929Z,6.09
2018-03-20T14:43:36.490Z,6.53
2018-03-20T14:46:03.988Z,6.37
2018-03-20T14:48:31.595Z,6.10
2018-03-20T14:50:59.099Z,6.51
2018-03-20T14:53:26.635Z,7.36
2018-03-20T14:55:54.191Z,7.48
2018-03-20T14:58:21.732Z,7.04
2018-03-20T15:00:49.257Z,6.36
2018-03-20T15:03:16.795Z,5.71
2018-03-20T15:05:44.291Z,5.32
2018-03-20T15:08:11.861Z,4.82
2018-03-20T15:10:40.353Z,4.58
2018-03-20T15:13:07.912Z,4.47
2018-03-20T15:15:36.379Z,4.24
2018-03-20T15:18:04.063Z,4.15
2018-03-20T15:20:31.568Z,4.27
2018-03-20T15:22:59.089Z,4.21
2018-03-20T15:25:26.575Z,4.18
2018-03-20T15:27:54.999Z,4.02
2018-03-20T15:30:22.675Z,3.98
2018-03-20T15:32:51.163Z,4.07
2018-03-20T15:35:18.687Z,4.11
2018-03-20T15:37:46.195Z,4.01
2018-03-20T15:40:13.711Z,3.87
2018-03-20T15:42:41.220Z,3.82
2018-03-20T15:45:08.736Z,3.80
2018-03-20T15:47:36.252Z,3.95
2018-03-20T15:50:03.743Z,3.83
2018-03-20T15:52:31.367Z,3.76
2018-03-20T15:54:58.840Z,3.68
2018-03-20T15:57:26.347Z,3.79
2018-03-20T15:59:53.851Z,3.79
2018-03-20T16:02:21.368Z,3.69
2018-03-20T16:04:48.883Z,3.57
2018-03-20T16:07:16.388Z,3.51
2018-03-20T16:09:43.904Z,3.53
2018-03-20T16:12:11.437Z,3.42
2018-03-20T16:14:38.968Z,3.37
2018-03-20T16:17:06.520Z,3.46
2018-03-20T16:19:34.056Z,3.44
2018-03-20T16:22:01.555Z,3.32
2018-03-20T16:24:29.080Z,3.33
2018-03-20T16:26:56.592Z,3.36
2018-03-20T16:29:24.159Z,3.28
2018-03-20T16:31:51.637Z,3.14
2018-03-20T16:34:19.170Z,3.03
2018-03-20T16:36:46.663Z,3.04
2018-03-20T16:39:14.253Z,2.96
2018-03-20T16:41:41.812Z,2.88
2018-03-20T16:44:09.348Z,2.79
2018-03-20T16:46:36.966Z,2.67
2018-03-20T16:49:04.488Z,2.72
2018-03-20T16:51:31.986Z,2.64
2018-03-20T16:53:59.548Z,2.53
2018-03-20T16:56:27.047Z,2.62
2018-03-20T16:58:54.600Z,2.58
2018-03-20T17:01:22.093Z,2.51
2018-03-20T17:03:49.605Z,2.57
2018-03-20T17:06:17.096Z,2.83
2018-03-20T17:08:44.668Z,3.11
2018-03-20T17:11:12.407Z,3.42
2018-03-20T17:13:39.935Z,4.29
2018-03-20T17:16:07.425Z,3.73
2018-03-20T17:18:34.966Z,2.98
2018-03-20T17:21:02.469Z,2.51
2018-03-20T17:23:30.020Z,2.31
2018-03-20T17:25:57.519Z,2.17
2018-03-20T17:28:25.081Z,2.14
2018-03-20T17:30:52.597Z,2.11
2018-03-20T17:33:20.113Z,2.12
2018-03-20T17:35:47.599Z,2.04
2018-03-20T17:38:15.111Z,2.01
2018-03-20T17:40:42.736Z,1.98
2018-03-20T17:43:10.305Z,1.92
2018-03-20T17:45:37.864Z,1.89
2018-03-20T17:48:05.360Z,1.88
2018-03-20T17:50:32.898Z,1.84
2018-03-20T17:53:00.391Z,1.84
2018-03-20T17:55:28.009Z,1.84
2018-03-20T17:57:55.522Z,1.86
2018-03-20T18:00:23.080Z,1.83
2018-03-20T18:02:50.679Z,1.82
2018-03-20T18:05:18.214Z,1.82
2018-03-20T18:07:45.706Z,1.79
2018-03-20T18:10:13.259Z,1.77
2018-03-20T18:12:40.780Z,1.74
2018-03-20T18:15:08.300Z,1.71
2018-03-20T18:17:35.812Z,1.72
2018-03-20T18:20:04.288Z,1.66
2018-03-20T18:22:31.788Z,1.62
2018-03-20T18:24:59.319Z,1.50
2018-03-20T18:27:27.753Z,1.45
2018-03-20T18:29:55.273Z,1.44
2018-03-20T18:32:22.777Z,1.39
2018-03-20T18:34:50.436Z,1.36
2018-03-20T18:37:17.942Z,1.31
2018-03-20T18:39:45.477Z,1.25
2018-03-20T18:42:12.993Z,1.25
2018-03-20T18:44:40.507Z,1.24
2018-03-20T18:47:08.072Z,1.16
2018-03-20T18:49:35.598Z,1.13
2018-03-20T18:52:03.103Z,1.05
2018-03-20T18:54:30.618Z,0.96
2018-03-20T18:56:58.235Z,0.92
2018-03-20T18:59:25.776Z,0.88
2018-03-20T19:01:53.264Z,0.89
2018-03-20T19:04:20.787Z,0.94
2018-03-20T19:06:48.287Z,0.97
2018-03-20T19:09:15.808Z,0.99
2018-03-20T19:11:43.362Z,1.05
2018-03-20T19:14:10.909Z,1.04
2018-03-20T19:16:38.430Z,1.04
2018-03-20T19:19:05.923Z,1.08
2018-03-20T19:21:33.555Z,1.07
2018-03-20T19:24:01.057Z,1.01
2018-03-20T19:26:28.582Z,0.98
2018-03-20T19:28:56.182Z,1.01
2018-03-20T19:31:23.740Z,0.95
2018-03-20T19:33:51.239Z,0.95
2018-03-20T19:36:18.861Z,0.88
2018-03-20T19:38:46.423Z,0.88
2018-03-20T19:41:14.099Z,0.80
2018-03-20T19:43:41.653Z,0.85
2018-03-20T19:46:09.214Z,0.88
2018-03-20T19:48:36.746Z,0.94
2018-03-20T19:51:04.302Z,1.08
2018-03-20T19:53:31.827Z,1.16
2018-03-20T19:55:59.351Z,1.25
2018-03-20T19:58:26.861Z,1.34
2018-03-20T20:00:54.371Z,1.36
2018-03-20T20:03:21.921Z,1.40
2018-03-20T20:05:49.512Z,1.45
2018-03-20T20:08:17.019Z,1.47
2018-03-20T20:10:44.551Z,1.50
2018-03-20T20:13:12.059Z,1.52
2018-03-20T20:15:39.626Z,1.54
2018-03-20T20:18:07.145Z,1.57
2018-03-20T20:20:34.670Z,1.52
2018-03-20T20:23:02.175Z,1.56
2018-03-20T20:25:30.674Z,1.55
2018-03-20T20:27:58.196Z,1.57
2018-03-20T20:30:25.717Z,1.56
2018-03-20T20:32:54.210Z,1.51
2018-03-20T20:35:21.744Z,1.46
2018-03-20T20:37:49.395Z,1.40
2018-03-20T20:40:16.908Z,1.29
2018-03-20T20:42:44.480Z,1.16
2018-03-20T20:45:12.000Z,1.10
2018-03-20T20:47:39.572Z,1.04
2018-03-20T20:50:07.093Z,1.06
2018-03-20T20:52:34.616Z,1.06
2018-03-20T20:55:02.108Z,1.09
2018-03-20T20:57:29.724Z,1.11
2018-03-20T20:59:57.295Z,1.10
2018-03-20T21:02:24.819Z,1.08
2018-03-20T21:04:52.325Z,1.08
2018-03-20T21:07:19.852Z,1.07
2018-03-20T21:09:47.354Z,1.05
2018-03-20T21:12:14.939Z,1.08
2018-03-20T21:14:42.456Z,1.07
2018-03-20T21:17:10.011Z,1.07
2018-03-20T21:19:37.615Z,1.07
2018-03-20T21:22:05.183Z,1.11
2018-03-20T21:24:32.688Z,1.11
2018-03-20T21:27:00.220Z,1.10
2018-03-20T21:29:27.764Z,1.08
2018-03-20T21:31:55.298Z,1.08
2018-03-20T21:34:22.800Z,1.09
2018-03-20T21:36:50.320Z,1.06
2018-03-20T21:39:17.818Z,1.03
2018-03-20T21:41:46.252Z,0.96
2018-03-20T21:44:13.832Z,0.88
2018-03-20T21:46:41.356Z,0.72
2018-03-20T21:49:09.049Z,0.62
2018-03-20T21:51:36.596Z,0.50
2018-03-20T21:54:04.127Z,0.36
2018-03-20T21:56:31.641Z,0.34
2018-03-20T21:58:59.163Z,0.27
2018-03-20T22:01:26.679Z,0.25
2018-03-20T22:03:54.188Z,0.26
2018-03-20T22:06:21.679Z,0.36
2018-03-20T22:08:49.226Z,0.45
2018-03-20T22:11:16.736Z,0.49
2018-03-20T22:13:44.263Z,0.54
2018-03-20T22:16:11.763Z,0.61
2018-03-20T22:18:39.279Z,0.65
2018-03-20T22:21:06.806Z,0.69
2018-03-20T22:23:34.393Z,0.76
2018-03-20T22:26:01.956Z,0.77
2018-03-20T22:28:29.490Z,0.80
2018-03-20T22:30:57.025Z,0.82
2018-03-20T22:33:24.603Z,0.72
2018-03-20T22:35:52.212Z,0.51
2018-03-20T22:38:19.727Z,0.41
2018-03-20T22:40:47.305Z,0.31
2018-03-20T22:43:14.834Z,0.18
2018-03-20T22:45:42.381Z,0.10
2018-03-20T22:48:09.902Z,0.14
2018-03-20T22:50:37.423Z,0.16
2018-03-20T22:53:04.936Z,0.13
2018-03-20T22:55:32.435Z,0.16
2018-03-20T22:57:59.951Z,0.22
2018-03-20T23:00:30.135Z,0.34
2018-03-20T23:02:57.679Z,0.42
2018-03-20T23:05:25.176Z,0.48
2018-03-20T23:07:52.719Z,0.52
2018-03-20T23:10:20.227Z,0.51
2018-03-20T23:12:47.768Z,0.51
2018-03-20T23:15:16.388Z,0.47
2018-03-20T23:17:43.936Z,0.44
2018-03-20T23:20:11.436Z,0.49
2018-03-20T23:22:38.977Z,0.51
2018-03-20T23:25:06.472Z,0.48
2018-03-20T23:27:34.104Z,0.50
2018-03-20T23:30:01.610Z,0.50
2018-03-20T23:32:29.131Z,0.54
2018-03-20T23:34:56.643Z,0.52
2018-03-20T23:37:24.327Z,0.54
2018-03-20T23:39:51.884Z,0.54
2018-03-20T23:42:19.375Z,0.56
2018-03-20T23:44:46.926Z,0.57
2018-03-20T23:47:14.418Z,0.54
2018-03-20T23:49:41.964Z,0.57
2018-03-20T23:52:09.501Z,0.56
2018-03-20T23:54:37.059Z,0.67
2018-03-20T23:57:04.551Z,0.79
2018-03-20T23:59:32.072Z,0.80
